sensor_id;sensor_type;location;lat;lon;timestamp;P1;durP1;ratioP1;P2;durP2;ratioP2
70153;SDS011;57519;51.494;-2.626;2023-07-13T00:02:14;7.43;;;3.63;;
70153;SDS011;57519;51.494;-2.626;2023-07-13T00:04:40;8.50;;;4.33;;
70153;SDS011;57519;51.494;-2.626;2023-07-13T00:07:06;7.13;;;3.63;;
70153;SDS011;57519;51.494;-2.626;2023-07-13T00:09:32;10.43;;;4.27;;
70153;SDS011;57519;51.494;-2.626;2023-07-13T00:11:58;7.60;;;4.30;;
70153;SDS011;57519;51.494;-2.626;2023-07-13T00:14:24;8.80;;;3.80;;
70153;SDS011;57519;51.494;-2.626;2023-07-13T00:16:52;10.20;;;4.47;;
70153;SDS011;57519;51.494;-2.626;2023-07-13T00:19:18;7.93;;;3.67;;
70153;SDS011;57519;51.494;-2.626;2023-07-13T00:21:44;8.27;;;3.80;;
70153;SDS011;57519;51.494;-2.626;2023-07-13T00:24:11;10.70;;;3.50;;
70153;SDS011;57519;51.494;-2.626;2023-07-13T00:26:38;7.03;;;3.50;;
70153;SDS011;57519;51.494;-2.626;2023-07-13T00:29:04;12.87;;;4.07;;
70153;SDS011;57519;51.494;-2.626;2023-07-13T00:31:33;6.97;;;3.60;;
70153;SDS011;57519;51.494;-2.626;2023-07-13T00:33:59;8.65;;;3.67;;
70153;SDS011;57519;51.494;-2.626;2023-07-13T00:36:25;9.67;;;4.17;;
70153;SDS011;57519;51.494;-2.626;2023-07-13T00:38:51;11.30;;;4.50;;
70153;SDS011;57519;51.494;-2.626;2023-07-13T00:41:16;10.45;;;4.00;;
70153;SDS011;57519;51.494;-2.626;2023-07-13T00:43:42;9.10;;;4.03;;
70153;SDS011;57519;51.494;-2.626;2023-07-13T00:46:16;14.97;;;4.57;;
70153;SDS011;57519;51.494;-2.626;2023-07-13T00:48:50;7.90;;;3.95;;
70153;SDS011;57519;51.494;-2.626;2023-07-13T00:51:19;6.38;;;3.53;;
70153;SDS011;57519;51.494;-2.626;2023-07-13T00:53:49;7.47;;;3.70;;
70153;SDS011;57519;51.494;-2.626;2023-07-13T00:56:15;7.47;;;3.53;;
70153;SDS011;57519;51.494;-2.626;2023-07-13T00:58:41;10.30;;;3.65;;
70153;SDS011;57519;51.494;-2.626;2023-07-13T01:01:07;7.00;;;4.27;;
70153;SDS011;57519;51.494;-2.626;2023-07-13T01:03:32;9.10;;;3.93;;
70153;SDS011;57519;51.494;-2.626;2023-07-13T01:06:00;7.03;;;3.25;;
70153;SDS011;57519;51.494;-2.626;2023-07-13T01:08:25;7.65;;;4.20;;
70153;SDS011;57519;51.494;-2.626;2023-07-13T01:10:54;9.47;;;4.30;;
70153;SDS011;57519;51.494;-2.626;2023-07-13T01:13:21;8.98;;;3.85;;
70153;SDS011;57519;51.494;-2.626;2023-07-13T01:15:48;7.47;;;4.47;;
70153;SDS011;57519;51.494;-2.626;2023-07-13T01:18:18;9.83;;;4.20;;
70153;SDS011;57519;51.494;-2.626;2023-07-13T01:20:53;9.27;;;4.53;;
70153;SDS011;57519;51.494;-2.626;2023-07-13T01:23:23;12.52;;;3.97;;
70153;SDS011;57519;51.494;-2.626;2023-07-13T01:25:49;8.07;;;4.20;;
70153;SDS011;57519;51.494;-2.626;2023-07-13T01:28:15;7.22;;;3.78;;
70153;SDS011;57519;51.494;-2.626;2023-07-13T01:30:42;9.30;;;3.73;;
70153;SDS011;57519;51.494;-2.626;2023-07-13T01:33:10;7.65;;;3.28;;
70153;SDS011;57519;51.494;-2.626;2023-07-13T01:35:38;6.10;;;3.65;;
70153;SDS011;57519;51.494;-2.626;2023-07-13T01:38:04;8.30;;;4.20;;
70153;SDS011;57519;51.494;-2.626;2023-07-13T01:40:29;9.10;;;3.60;;
70153;SDS011;57519;51.494;-2.626;2023-07-13T01:42:55;7.77;;;4.57;;
70153;SDS011;57519;51.494;-2.626;2023-07-13T01:45:20;8.70;;;4.25;;
70153;SDS011;57519;51.494;-2.626;2023-07-13T01:47:46;6.00;;;3.60;;
70153;SDS011;57519;51.494;-2.626;2023-07-13T01:50:11;8.13;;;3.70;;
70153;SDS011;57519;51.494;-2.626;2023-07-13T01:52:37;7.82;;;3.95;;
70153;SDS011;57519;51.494;-2.626;2023-07-13T01:55:02;7.57;;;3.73;;
70153;SDS011;57519;51.494;-2.626;2023-07-13T01:57:28;6.15;;;3.72;;
70153;SDS011;57519;51.494;-2.626;2023-07-13T01:59:54;5.60;;;3.30;;
70153;SDS011;57519;51.494;-2.626;2023-07-13T02:02:19;7.73;;;3.77;;
70153;SDS011;57519;51.494;-2.626;2023-07-13T02:04:45;5.03;;;3.42;;
70153;SDS011;57519;51.494;-2.626;2023-07-13T02:07:10;7.10;;;4.27;;
70153;SDS011;57519;51.494;-2.626;2023-07-13T02:09:36;7.97;;;4.50;;
70153;SDS011;57519;51.494;-2.626;2023-07-13T02:12:01;5.97;;;4.22;;
70153;SDS011;57519;51.494;-2.626;2023-07-13T02:14:27;8.37;;;4.27;;
70153;SDS011;57519;51.494;-2.626;2023-07-13T02:16:53;7.70;;;4.25;;
70153;SDS011;57519;51.494;-2.626;2023-07-13T02:19:18;8.70;;;4.23;;
70153;SDS011;57519;51.494;-2.626;2023-07-13T02:21:43;7.40;;;3.60;;
70153;SDS011;57519;51.494;-2.626;2023-07-13T02:24:09;11.27;;;4.53;;
70153;SDS011;57519;51.494;-2.626;2023-07-13T02:26:34;7.55;;;4.05;;
70153;SDS011;57519;51.494;-2.626;2023-07-13T02:29:01;9.17;;;4.13;;
70153;SDS011;57519;51.494;-2.626;2023-07-13T02:31:26;11.60;;;3.72;;
70153;SDS011;57519;51.494;-2.626;2023-07-13T02:33:51;7.23;;;3.70;;
70153;SDS011;57519;51.494;-2.626;2023-07-13T02:36:17;8.57;;;4.37;;
70153;SDS011;57519;51.494;-2.626;2023-07-13T02:38:43;7.70;;;3.63;;
70153;SDS011;57519;51.494;-2.626;2023-07-13T02:41:09;9.17;;;4.00;;
70153;SDS011;57519;51.494;-2.626;2023-07-13T02:43:35;11.10;;;4.43;;
70153;SDS011;57519;51.494;-2.626;2023-07-13T02:46:01;9.00;;;3.80;;
70153;SDS011;57519;51.494;-2.626;2023-07-13T02:48:29;7.18;;;3.85;;
70153;SDS011;57519;51.494;-2.626;2023-07-13T02:50:55;7.20;;;3.42;;
70153;SDS011;57519;51.494;-2.626;2023-07-13T02:53:20;9.07;;;3.87;;
70153;SDS011;57519;51.494;-2.626;2023-07-13T02:55:46;6.45;;;3.47;;
70153;SDS011;57519;51.494;-2.626;2023-07-13T02:58:12;8.93;;;2.80;;
70153;SDS011;57519;51.494;-2.626;2023-07-13T03:00:42;10.73;;;3.05;;
70153;SDS011;57519;51.494;-2.626;2023-07-13T03:03:08;11.82;;;4.00;;
70153;SDS011;57519;51.494;-2.626;2023-07-13T03:05:34;9.15;;;3.67;;
70153;SDS011;57519;51.494;-2.626;2023-07-13T03:07:59;6.53;;;3.70;;
70153;SDS011;57519;51.494;-2.626;2023-07-13T03:10:24;9.50;;;4.43;;
70153;SDS011;57519;51.494;-2.626;2023-07-13T03:12:50;6.27;;;2.67;;
70153;SDS011;57519;51.494;-2.626;2023-07-13T03:15:15;10.87;;;2.90;;
70153;SDS011;57519;51.494;-2.626;2023-07-13T03:17:41;9.23;;;2.92;;
70153;SDS011;57519;51.494;-2.626;2023-07-13T03:20:06;8.13;;;3.00;;
70153;SDS011;57519;51.494;-2.626;2023-07-13T03:22:33;5.07;;;3.17;;
70153;SDS011;57519;51.494;-2.626;2023-07-13T03:24:58;10.07;;;3.10;;
70153;SDS011;57519;51.494;-2.626;2023-07-13T03:27:24;5.80;;;3.30;;
70153;SDS011;57519;51.494;-2.626;2023-07-13T03:29:49;5.80;;;3.13;;
70153;SDS011;57519;51.494;-2.626;2023-07-13T03:32:14;8.13;;;3.20;;
70153;SDS011;57519;51.494;-2.626;2023-07-13T03:34:40;7.23;;;3.40;;
70153;SDS011;57519;51.494;-2.626;2023-07-13T03:37:05;7.80;;;3.67;;
70153;SDS011;57519;51.494;-2.626;2023-07-13T03:39:31;10.38;;;3.78;;
70153;SDS011;57519;51.494;-2.626;2023-07-13T03:41:56;7.60;;;2.83;;
70153;SDS011;57519;51.494;-2.626;2023-07-13T03:44:21;5.30;;;3.27;;
70153;SDS011;57519;51.494;-2.626;2023-07-13T03:46:47;8.33;;;3.13;;
70153;SDS011;57519;51.494;-2.626;2023-07-13T03:49:12;9.00;;;3.45;;
70153;SDS011;57519;51.494;-2.626;2023-07-13T03:51:38;7.77;;;3.30;;
70153;SDS011;57519;51.494;-2.626;2023-07-13T03:54:04;7.67;;;3.23;;
70153;SDS011;57519;51.494;-2.626;2023-07-13T03:56:29;8.20;;;3.30;;
70153;SDS011;57519;51.494;-2.626;2023-07-13T03:58:55;9.88;;;4.00;;
70153;SDS011;57519;51.494;-2.626;2023-07-13T04:01:22;6.23;;;3.23;;
70153;SDS011;57519;51.494;-2.626;2023-07-13T04:03:49;5.32;;;3.25;;
70153;SDS011;57519;51.494;-2.626;2023-07-13T04:06:16;9.80;;;3.75;;
70153;SDS011;57519;51.494;-2.626;2023-07-13T04:08:47;8.40;;;4.00;;
70153;SDS011;57519;51.494;-2.626;2023-07-13T04:11:14;8.63;;;3.50;;
70153;SDS011;57519;51.494;-2.626;2023-07-13T04:13:39;7.70;;;3.60;;
70153;SDS011;57519;51.494;-2.626;2023-07-13T04:16:05;9.57;;;3.90;;
70153;SDS011;57519;51.494;-2.626;2023-07-13T04:18:30;8.07;;;3.30;;
70153;SDS011;57519;51.494;-2.626;2023-07-13T04:20:55;6.73;;;3.43;;
70153;SDS011;57519;51.494;-2.626;2023-07-13T04:23:21;6.10;;;3.20;;
70153;SDS011;57519;51.494;-2.626;2023-07-13T04:25:47;11.20;;;4.22;;
70153;SDS011;57519;51.494;-2.626;2023-07-13T04:28:18;8.40;;;3.23;;
70153;SDS011;57519;51.494;-2.626;2023-07-13T04:30:44;6.22;;;3.20;;
70153;SDS011;57519;51.494;-2.626;2023-07-13T04:33:10;8.57;;;3.28;;
70153;SDS011;57519;51.494;-2.626;2023-07-13T04:35:35;6.10;;;3.17;;
70153;SDS011;57519;51.494;-2.626;2023-07-13T04:38:01;6.10;;;3.80;;
70153;SDS011;57519;51.494;-2.626;2023-07-13T04:40:27;7.50;;;3.55;;
70153;SDS011;57519;51.494;-2.626;2023-07-13T04:42:53;6.40;;;3.60;;
70153;SDS011;57519;51.494;-2.626;2023-07-13T04:45:19;8.03;;;3.90;;
70153;SDS011;57519;51.494;-2.626;2023-07-13T04:47:44;9.18;;;3.78;;
70153;SDS011;57519;51.494;-2.626;2023-07-13T04:50:12;9.03;;;4.00;;
70153;SDS011;57519;51.494;-2.626;2023-07-13T04:52:40;7.03;;;4.03;;
70153;SDS011;57519;51.494;-2.626;2023-07-13T04:55:07;9.05;;;3.53;;
70153;SDS011;57519;51.494;-2.626;2023-07-13T04:57:33;7.70;;;3.70;;
70153;SDS011;57519;51.494;-2.626;2023-07-13T04:59:58;8.70;;;4.07;;
70153;SDS011;57519;51.494;-2.626;2023-07-13T05:02:26;7.90;;;3.67;;
70153;SDS011;57519;51.494;-2.626;2023-07-13T05:04:53;10.30;;;4.07;;
70153;SDS011;57519;51.494;-2.626;2023-07-13T05:07:18;7.28;;;3.53;;
70153;SDS011;57519;51.494;-2.626;2023-07-13T05:09:44;7.03;;;3.87;;
70153;SDS011;57519;51.494;-2.626;2023-07-13T05:12:09;5.13;;;3.63;;
70153;SDS011;57519;51.494;-2.626;2023-07-13T05:14:35;6.55;;;3.58;;
70153;SDS011;57519;51.494;-2.626;2023-07-13T05:17:01;11.20;;;4.30;;
70153;SDS011;57519;51.494;-2.626;2023-07-13T05:19:26;5.38;;;3.28;;
70153;SDS011;57519;51.494;-2.626;2023-07-13T05:21:52;7.97;;;3.93;;
70153;SDS011;57519;51.494;-2.626;2023-07-13T05:24:18;7.83;;;4.10;;
70153;SDS011;57519;51.494;-2.626;2023-07-13T05:26:43;10.77;;;3.80;;
70153;SDS011;57519;51.494;-2.626;2023-07-13T05:29:09;7.25;;;4.35;;
70153;SDS011;57519;51.494;-2.626;2023-07-13T05:31:35;9.67;;;3.63;;
70153;SDS011;57519;51.494;-2.626;2023-07-13T05:34:00;6.17;;;3.23;;
70153;SDS011;57519;51.494;-2.626;2023-07-13T05:36:25;6.40;;;3.13;;
70153;SDS011;57519;51.494;-2.626;2023-07-13T05:38:51;6.93;;;4.18;;
70153;SDS011;57519;51.494;-2.626;2023-07-13T05:41:16;8.43;;;3.67;;
70153;SDS011;57519;51.494;-2.626;2023-07-13T05:43:42;8.77;;;4.43;;
70153;SDS011;57519;51.494;-2.626;2023-07-13T05:46:07;8.17;;;4.23;;
70153;SDS011;57519;51.494;-2.626;2023-07-13T05:48:33;8.88;;;4.00;;
70153;SDS011;57519;51.494;-2.626;2023-07-13T05:50:58;7.60;;;3.93;;
70153;SDS011;57519;51.494;-2.626;2023-07-13T05:53:23;9.57;;;3.87;;
70153;SDS011;57519;51.494;-2.626;2023-07-13T05:55:49;10.30;;;3.67;;
70153;SDS011;57519;51.494;-2.626;2023-07-13T05:58:18;7.78;;;3.10;;
70153;SDS011;57519;51.494;-2.626;2023-07-13T06:00:44;5.53;;;3.20;;
70153;SDS011;57519;51.494;-2.626;2023-07-13T06:03:10;6.70;;;3.33;;
70153;SDS011;57519;51.494;-2.626;2023-07-13T06:05:36;9.20;;;3.53;;
70153;SDS011;57519;51.494;-2.626;2023-07-13T06:08:03;5.60;;;3.20;;
70153;SDS011;57519;51.494;-2.626;2023-07-13T06:10:29;7.75;;;3.42;;
70153;SDS011;57519;51.494;-2.626;2023-07-13T06:12:57;6.03;;;2.80;;
70153;SDS011;57519;51.494;-2.626;2023-07-13T06:15:22;7.38;;;3.13;;
70153;SDS011;57519;51.494;-2.626;2023-07-13T06:17:48;6.47;;;3.37;;
70153;SDS011;57519;51.494;-2.626;2023-07-13T06:20:14;9.23;;;3.88;;
70153;SDS011;57519;51.494;-2.626;2023-07-13T06:22:39;6.83;;;3.27;;
70153;SDS011;57519;51.494;-2.626;2023-07-13T06:25:05;6.20;;;3.07;;
70153;SDS011;57519;51.494;-2.626;2023-07-13T06:27:30;7.53;;;3.63;;
70153;SDS011;57519;51.494;-2.626;2023-07-13T06:29:56;8.80;;;3.53;;
70153;SDS011;57519;51.494;-2.626;2023-07-13T06:32:24;6.43;;;3.60;;
70153;SDS011;57519;51.494;-2.626;2023-07-13T06:34:50;7.80;;;3.80;;
70153;SDS011;57519;51.494;-2.626;2023-07-13T06:37:17;8.75;;;3.80;;
70153;SDS011;57519;51.494;-2.626;2023-07-13T06:39:42;10.98;;;3.78;;
70153;SDS011;57519;51.494;-2.626;2023-07-13T06:42:11;5.17;;;3.30;;
70153;SDS011;57519;51.494;-2.626;2023-07-13T06:44:36;5.53;;;3.22;;
70153;SDS011;57519;51.494;-2.626;2023-07-13T06:47:02;8.40;;;3.93;;
70153;SDS011;57519;51.494;-2.626;2023-07-13T06:49:27;5.70;;;3.83;;
70153;SDS011;57519;51.494;-2.626;2023-07-13T06:51:53;7.30;;;3.70;;
70153;SDS011;57519;51.494;-2.626;2023-07-13T06:54:18;7.30;;;3.40;;
70153;SDS011;57519;51.494;-2.626;2023-07-13T06:56:43;5.33;;;3.37;;
70153;SDS011;57519;51.494;-2.626;2023-07-13T06:59:09;9.03;;;3.23;;
70153;SDS011;57519;51.494;-2.626;2023-07-13T07:01:34;6.15;;;3.28;;
70153;SDS011;57519;51.494;-2.626;2023-07-13T07:04:00;6.53;;;3.67;;
70153;SDS011;57519;51.494;-2.626;2023-07-13T07:06:25;5.03;;;3.23;;
70153;SDS011;57519;51.494;-2.626;2023-07-13T07:08:51;6.37;;;2.90;;
70153;SDS011;57519;51.494;-2.626;2023-07-13T07:11:22;6.43;;;2.78;;
70153;SDS011;57519;51.494;-2.626;2023-07-13T07:13:51;5.72;;;3.17;;
70153;SDS011;57519;51.494;-2.626;2023-07-13T07:16:18;4.43;;;2.70;;
70153;SDS011;57519;51.494;-2.626;2023-07-13T07:18:44;6.35;;;3.20;;
70153;SDS011;57519;51.494;-2.626;2023-07-13T07:21:10;4.87;;;2.70;;
70153;SDS011;57519;51.494;-2.626;2023-07-13T07:23:36;7.38;;;3.30;;
70153;SDS011;57519;51.494;-2.626;2023-07-13T07:26:03;6.90;;;3.13;;
70153;SDS011;57519;51.494;-2.626;2023-07-13T07:28:28;5.40;;;3.13;;
70153;SDS011;57519;51.494;-2.626;2023-07-13T07:30:55;5.10;;;2.72;;
70153;SDS011;57519;51.494;-2.626;2023-07-13T07:33:22;5.18;;;3.25;;
70153;SDS011;57519;51.494;-2.626;2023-07-13T07:35:48;5.40;;;3.40;;
70153;SDS011;57519;51.494;-2.626;2023-07-13T07:38:13;6.03;;;3.13;;
70153;SDS011;57519;51.494;-2.626;2023-07-13T07:40:39;4.00;;;2.80;;
70153;SDS011;57519;51.494;-2.626;2023-07-13T07:43:06;5.10;;;3.08;;
70153;SDS011;57519;51.494;-2.626;2023-07-13T07:45:32;5.50;;;2.50;;
70153;SDS011;57519;51.494;-2.626;2023-07-13T07:47:58;4.03;;;2.58;;
70153;SDS011;57519;51.494;-2.626;2023-07-13T07:50:27;5.95;;;3.05;;
70153;SDS011;57519;51.494;-2.626;2023-07-13T07:52:53;4.57;;;2.40;;
70153;SDS011;57519;51.494;-2.626;2023-07-13T07:55:21;5.15;;;2.78;;
70153;SDS011;57519;51.494;-2.626;2023-07-13T07:57:47;5.35;;;3.20;;
70153;SDS011;57519;51.494;-2.626;2023-07-13T08:00:13;4.47;;;2.77;;
70153;SDS011;57519;51.494;-2.626;2023-07-13T08:02:39;4.47;;;2.50;;
70153;SDS011;57519;51.494;-2.626;2023-07-13T08:05:06;4.20;;;2.83;;
70153;SDS011;57519;51.494;-2.626;2023-07-13T08:07:36;5.57;;;3.28;;
70153;SDS011;57519;51.494;-2.626;2023-07-13T08:10:02;5.88;;;3.28;;
70153;SDS011;57519;51.494;-2.626;2023-07-13T08:12:28;4.70;;;2.70;;
70153;SDS011;57519;51.494;-2.626;2023-07-13T08:14:53;5.35;;;2.60;;
70153;SDS011;57519;51.494;-2.626;2023-07-13T08:17:22;5.20;;;3.00;;
70153;SDS011;57519;51.494;-2.626;2023-07-13T08:19:48;4.22;;;2.90;;
70153;SDS011;57519;51.494;-2.626;2023-07-13T08:22:13;6.37;;;2.73;;
70153;SDS011;57519;51.494;-2.626;2023-07-13T08:24:39;4.20;;;3.38;;
70153;SDS011;57519;51.494;-2.626;2023-07-13T08:27:04;4.63;;;3.40;;
70153;SDS011;57519;51.494;-2.626;2023-07-13T08:29:33;4.18;;;2.95;;
70153;SDS011;57519;51.494;-2.626;2023-07-13T08:31:58;4.77;;;2.57;;
70153;SDS011;57519;51.494;-2.626;2023-07-13T08:34:23;5.90;;;3.10;;
70153;SDS011;57519;51.494;-2.626;2023-07-13T08:36:49;7.13;;;3.00;;
70153;SDS011;57519;51.494;-2.626;2023-07-13T08:39:14;7.75;;;2.92;;
70153;SDS011;57519;51.494;-2.626;2023-07-13T08:41:40;5.20;;;3.20;;
70153;SDS011;57519;51.494;-2.626;2023-07-13T08:44:06;6.20;;;3.40;;
70153;SDS011;57519;51.494;-2.626;2023-07-13T08:46:44;6.10;;;2.80;;
70153;SDS011;57519;51.494;-2.626;2023-07-13T08:49:12;4.85;;;2.55;;
70153;SDS011;57519;51.494;-2.626;2023-07-13T08:51:45;5.30;;;3.13;;
70153;SDS011;57519;51.494;-2.626;2023-07-13T08:54:38;4.57;;;2.80;;
70153;SDS011;57519;51.494;-2.626;2023-07-13T08:57:13;4.03;;;2.60;;
70153;SDS011;57519;51.494;-2.626;2023-07-13T08:59:40;5.80;;;3.00;;
70153;SDS011;57519;51.494;-2.626;2023-07-13T09:05:25;6.78;;;2.78;;
70153;SDS011;57519;51.494;-2.626;2023-07-13T09:16:50;4.93;;;2.72;;
70153;SDS011;57519;51.494;-2.626;2023-07-13T09:19:20;4.57;;;2.83;;
70153;SDS011;57519;51.494;-2.626;2023-07-13T09:21:51;6.78;;;2.75;;
70153;SDS011;57519;51.494;-2.626;2023-07-13T09:24:31;5.38;;;2.88;;
70153;SDS011;57519;51.494;-2.626;2023-07-13T09:27:03;4.20;;;2.15;;
70153;SDS011;57519;51.494;-2.626;2023-07-13T09:29:36;4.35;;;2.55;;
70153;SDS011;57519;51.494;-2.626;2023-07-13T09:32:09;4.17;;;1.97;;
70153;SDS011;57519;51.494;-2.626;2023-07-13T09:34:38;4.78;;;2.30;;
70153;SDS011;57519;51.494;-2.626;2023-07-13T09:37:03;4.18;;;2.55;;
70153;SDS011;57519;51.494;-2.626;2023-07-13T09:39:31;5.07;;;2.37;;
70153;SDS011;57519;51.494;-2.626;2023-07-13T09:45:01;5.03;;;2.30;;
70153;SDS011;57519;51.494;-2.626;2023-07-13T09:47:28;6.15;;;2.60;;
70153;SDS011;57519;51.494;-2.626;2023-07-13T09:49:56;10.25;;;4.32;;
70153;SDS011;57519;51.494;-2.626;2023-07-13T09:52:23;5.10;;;2.70;;
70153;SDS011;57519;51.494;-2.626;2023-07-13T09:54:51;7.40;;;3.58;;
70153;SDS011;57519;51.494;-2.626;2023-07-13T09:57:22;6.90;;;2.97;;
70153;SDS011;57519;51.494;-2.626;2023-07-13T09:59:49;5.20;;;2.78;;
70153;SDS011;57519;51.494;-2.626;2023-07-13T10:02:23;5.90;;;2.47;;
70153;SDS011;57519;51.494;-2.626;2023-07-13T10:04:57;4.93;;;2.90;;
70153;SDS011;57519;51.494;-2.626;2023-07-13T10:07:35;5.60;;;2.80;;
70153;SDS011;57519;51.494;-2.626;2023-07-13T10:10:12;6.15;;;2.65;;
70153;SDS011;57519;51.494;-2.626;2023-07-13T10:12:45;5.75;;;2.80;;
70153;SDS011;57519;51.494;-2.626;2023-07-13T10:15:15;4.45;;;2.50;;
70153;SDS011;57519;51.494;-2.626;2023-07-13T10:17:46;6.37;;;3.40;;
70153;SDS011;57519;51.494;-2.626;2023-07-13T10:20:12;6.85;;;2.88;;
70153;SDS011;57519;51.494;-2.626;2023-07-13T10:22:43;4.60;;;2.70;;
70153;SDS011;57519;51.494;-2.626;2023-07-13T10:25:19;4.45;;;2.60;;
70153;SDS011;57519;51.494;-2.626;2023-07-13T10:27:47;5.97;;;3.35;;
70153;SDS011;57519;51.494;-2.626;2023-07-13T10:30:18;7.97;;;2.77;;
70153;SDS011;57519;51.494;-2.626;2023-07-13T10:32:45;6.75;;;2.97;;
70153;SDS011;57519;51.494;-2.626;2023-07-13T10:35:12;6.55;;;2.40;;
70153;SDS011;57519;51.494;-2.626;2023-07-13T10:37:44;6.75;;;2.78;;
70153;SDS011;57519;51.494;-2.626;2023-07-13T10:40:26;5.10;;;2.80;;
70153;SDS011;57519;51.494;-2.626;2023-07-13T10:42:57;4.20;;;2.80;;
70153;SDS011;57519;51.494;-2.626;2023-07-13T10:45:25;5.68;;;2.78;;
70153;SDS011;57519;51.494;-2.626;2023-07-13T10:47:53;6.78;;;2.58;;
70153;SDS011;57519;51.494;-2.626;2023-07-13T10:50:25;5.95;;;2.95;;
70153;SDS011;57519;51.494;-2.626;2023-07-13T10:52:55;6.03;;;3.05;;
70153;SDS011;57519;51.494;-2.626;2023-07-13T10:55:32;6.93;;;2.87;;
70153;SDS011;57519;51.494;-2.626;2023-07-13T11:01:08;5.70;;;2.80;;
70153;SDS011;57519;51.494;-2.626;2023-07-13T11:03:54;5.82;;;3.05;;
70153;SDS011;57519;51.494;-2.626;2023-07-13T11:08:57;5.70;;;3.07;;
70153;SDS011;57519;51.494;-2.626;2023-07-13T11:18:47;4.10;;;2.23;;
70153;SDS011;57519;51.494;-2.626;2023-07-13T11:21:21;5.88;;;2.40;;
70153;SDS011;57519;51.494;-2.626;2023-07-13T11:23:52;6.18;;;2.55;;
70153;SDS011;57519;51.494;-2.626;2023-07-13T11:31:42;5.73;;;3.00;;
70153;SDS011;57519;51.494;-2.626;2023-07-13T11:34:15;5.38;;;3.40;;
70153;SDS011;57519;51.494;-2.626;2023-07-13T11:36:46;6.25;;;2.90;;
70153;SDS011;57519;51.494;-2.626;2023-07-13T11:42:02;6.32;;;2.67;;
70153;SDS011;57519;51.494;-2.626;2023-07-13T11:44:31;5.93;;;2.70;;
70153;SDS011;57519;51.494;-2.626;2023-07-13T11:47:10;6.45;;;3.35;;
70153;SDS011;57519;51.494;-2.626;2023-07-13T11:49:44;5.15;;;2.90;;
70153;SDS011;57519;51.494;-2.626;2023-07-13T11:52:16;5.43;;;2.50;;
70153;SDS011;57519;51.494;-2.626;2023-07-13T11:54:47;5.75;;;2.60;;
70153;SDS011;57519;51.494;-2.626;2023-07-13T11:57:26;5.47;;;2.97;;
70153;SDS011;57519;51.494;-2.626;2023-07-13T11:59:56;5.75;;;2.60;;
70153;SDS011;57519;51.494;-2.626;2023-07-13T12:02:34;4.82;;;2.50;;
70153;SDS011;57519;51.494;-2.626;2023-07-13T12:05:03;3.72;;;1.90;;
70153;SDS011;57519;51.494;-2.626;2023-07-13T12:07:31;6.40;;;2.50;;
70153;SDS011;57519;51.494;-2.626;2023-07-13T12:12:47;6.50;;;2.55;;
70153;SDS011;57519;51.494;-2.626;2023-07-13T12:15:17;5.30;;;2.17;;
70153;SDS011;57519;51.494;-2.626;2023-07-13T12:17:43;4.50;;;2.70;;
70153;SDS011;57519;51.494;-2.626;2023-07-13T12:20:21;5.20;;;2.43;;
70153;SDS011;57519;51.494;-2.626;2023-07-13T12:22:49;6.07;;;2.25;;
70153;SDS011;57519;51.494;-2.626;2023-07-13T12:25:16;4.70;;;2.83;;
70153;SDS011;57519;51.494;-2.626;2023-07-13T12:27:46;6.18;;;2.70;;
70153;SDS011;57519;51.494;-2.626;2023-07-13T12:30:26;5.63;;;2.38;;
70153;SDS011;57519;51.494;-2.626;2023-07-13T12:32:59;5.00;;;2.50;;
70153;SDS011;57519;51.494;-2.626;2023-07-13T12:35:30;5.05;;;2.50;;
70153;SDS011;57519;51.494;-2.626;2023-07-13T12:37:58;4.38;;;2.35;;
70153;SDS011;57519;51.494;-2.626;2023-07-13T12:40:27;5.10;;;2.28;;
70153;SDS011;57519;51.494;-2.626;2023-07-13T12:42:58;6.78;;;2.90;;
70153;SDS011;57519;51.494;-2.626;2023-07-13T12:45:25;4.80;;;2.13;;
70153;SDS011;57519;51.494;-2.626;2023-07-13T12:48:02;9.35;;;4.05;;
70153;SDS011;57519;51.494;-2.626;2023-07-13T12:50:39;6.15;;;2.70;;
70153;SDS011;57519;51.494;-2.626;2023-07-13T12:53:21;6.35;;;2.78;;
70153;SDS011;57519;51.494;-2.626;2023-07-13T12:55:54;5.60;;;2.95;;
70153;SDS011;57519;51.494;-2.626;2023-07-13T12:58:32;8.33;;;3.20;;
70153;SDS011;57519;51.494;-2.626;2023-07-13T13:01:02;4.75;;;2.70;;
70153;SDS011;57519;51.494;-2.626;2023-07-13T13:03:34;9.23;;;2.40;;
70153;SDS011;57519;51.494;-2.626;2023-07-13T13:06:03;10.13;;;3.00;;
70153;SDS011;57519;51.494;-2.626;2023-07-13T13:08:32;6.22;;;2.67;;
70153;SDS011;57519;51.494;-2.626;2023-07-13T13:11:01;6.50;;;2.80;;
70153;SDS011;57519;51.494;-2.626;2023-07-13T13:13:27;6.75;;;2.72;;
70153;SDS011;57519;51.494;-2.626;2023-07-13T13:15:53;7.22;;;2.90;;
70153;SDS011;57519;51.494;-2.626;2023-07-13T13:18:22;5.13;;;2.13;;
70153;SDS011;57519;51.494;-2.626;2023-07-13T13:20:49;7.32;;;3.05;;
70153;SDS011;57519;51.494;-2.626;2023-07-13T13:23:15;5.43;;;2.38;;
70153;SDS011;57519;51.494;-2.626;2023-07-13T13:25:46;5.50;;;3.03;;
70153;SDS011;57519;51.494;-2.626;2023-07-13T13:28:13;8.18;;;3.28;;
70153;SDS011;57519;51.494;-2.626;2023-07-13T13:30:44;4.63;;;1.88;;
70153;SDS011;57519;51.494;-2.626;2023-07-13T13:33:11;5.60;;;2.63;;
70153;SDS011;57519;51.494;-2.626;2023-07-13T13:35:39;6.82;;;2.67;;
70153;SDS011;57519;51.494;-2.626;2023-07-13T13:38:13;4.93;;;2.80;;
70153;SDS011;57519;51.494;-2.626;2023-07-13T13:40:40;6.78;;;2.58;;
70153;SDS011;57519;51.494;-2.626;2023-07-13T13:43:25;5.70;;;2.72;;
70153;SDS011;57519;51.494;-2.626;2023-07-13T13:45:52;8.45;;;3.30;;
70153;SDS011;57519;51.494;-2.626;2023-07-13T13:48:31;5.57;;;3.20;;
70153;SDS011;57519;51.494;-2.626;2023-07-13T13:50:58;8.47;;;3.63;;
70153;SDS011;57519;51.494;-2.626;2023-07-13T13:53:25;6.60;;;3.05;;
70153;SDS011;57519;51.494;-2.626;2023-07-13T13:55:51;6.93;;;3.00;;
70153;SDS011;57519;51.494;-2.626;2023-07-13T13:58:18;6.18;;;3.47;;
70153;SDS011;57519;51.494;-2.626;2023-07-13T14:00:44;8.23;;;3.30;;
70153;SDS011;57519;51.494;-2.626;2023-07-13T14:03:19;6.28;;;3.13;;
70153;SDS011;57519;51.494;-2.626;2023-07-13T14:05:47;6.47;;;3.17;;
70153;SDS011;57519;51.494;-2.626;2023-07-13T14:08:18;6.78;;;3.50;;
70153;SDS011;57519;51.494;-2.626;2023-07-13T14:10:46;8.20;;;2.85;;
70153;SDS011;57519;51.494;-2.626;2023-07-13T14:13:36;7.30;;;3.10;;
70153;SDS011;57519;51.494;-2.626;2023-07-13T14:16:04;6.18;;;3.05;;
70153;SDS011;57519;51.494;-2.626;2023-07-13T14:18:40;7.03;;;2.78;;
70153;SDS011;57519;51.494;-2.626;2023-07-13T14:21:12;7.07;;;3.20;;
70153;SDS011;57519;51.494;-2.626;2023-07-13T14:23:39;6.43;;;3.00;;
70153;SDS011;57519;51.494;-2.626;2023-07-13T14:26:09;7.10;;;3.00;;
70153;SDS011;57519;51.494;-2.626;2023-07-13T14:28:37;8.00;;;3.75;;
70153;SDS011;57519;51.494;-2.626;2023-07-13T14:31:06;5.47;;;3.22;;
70153;SDS011;57519;51.494;-2.626;2023-07-13T14:33:32;6.07;;;3.10;;
70153;SDS011;57519;51.494;-2.626;2023-07-13T14:35:58;6.53;;;3.35;;
70153;SDS011;57519;51.494;-2.626;2023-07-13T14:38:23;7.23;;;3.17;;
70153;SDS011;57519;51.494;-2.626;2023-07-13T14:40:49;7.73;;;3.77;;
70153;SDS011;57519;51.494;-2.626;2023-07-13T14:43:15;6.70;;;3.45;;
70153;SDS011;57519;51.494;-2.626;2023-07-13T14:45:43;6.83;;;3.80;;
70153;SDS011;57519;51.494;-2.626;2023-07-13T14:48:19;6.97;;;3.70;;
70153;SDS011;57519;51.494;-2.626;2023-07-13T14:50:49;8.15;;;3.38;;
70153;SDS011;57519;51.494;-2.626;2023-07-13T14:53:18;7.32;;;3.40;;
70153;SDS011;57519;51.494;-2.626;2023-07-13T14:55:44;5.03;;;3.10;;
70153;SDS011;57519;51.494;-2.626;2023-07-13T14:58:09;7.37;;;3.50;;
70153;SDS011;57519;51.494;-2.626;2023-07-13T15:00:35;7.82;;;2.88;;
70153;SDS011;57519;51.494;-2.626;2023-07-13T15:03:02;5.55;;;2.65;;
70153;SDS011;57519;51.494;-2.626;2023-07-13T15:05:31;9.07;;;3.47;;
70153;SDS011;57519;51.494;-2.626;2023-07-13T15:07:58;6.60;;;3.20;;
70153;SDS011;57519;51.494;-2.626;2023-07-13T15:10:28;5.85;;;2.70;;
70153;SDS011;57519;51.494;-2.626;2023-07-13T15:12:58;8.63;;;2.65;;
70153;SDS011;57519;51.494;-2.626;2023-07-13T15:15:37;8.63;;;3.28;;
70153;SDS011;57519;51.494;-2.626;2023-07-13T15:18:07;5.13;;;2.97;;